Time;durP1;ratioP1;P1;durP2;ratioP2;P2;SDS_P1;SDS_P2;PMS_P1;PMS_P2;Temp;Humidity;BMP_temperature;BMP_pressure;BME280_temperature;BME280_humidity;BME280_pressure;Samples;Min_cycle;Max_cycle;Signal;HPM_P1;HPM_P2
2022/09/22 00:01:07;;;;;;;19.58;7.10;;;;;;;9.98;82.09;102038.66;5057953;28;20486;-55
2022/09/22 00:03:36;;;;;;;23.00;7.07;;;;;;;9.99;82.66;102035.91;5067493;28;20143;-55
2022/09/22 00:06:06;;;;;;;22.65;7.05;;;;;;;10.03;82.04;102036.50;5055575;28;20176;-52
2022/09/22 00:08:37;;;;;;;23.88;7.65;;;;;;;10.02;81.11;102036.63;5065666;28;20406;-53
2022/09/22 00:11:07;;;;;;;16.80;7.38;;;;;;;10.06;81.16;102033.63;5060620;28;20044;-53
2022/09/22 00:13:35;;;;;;;18.58;7.30;;;;;;;10.07;82.08;102040.59;5067764;28;20040;-55
2022/09/22 00:16:06;;;;;;;20.23;7.65;;;;;;;10.11;82.54;102041.19;5055583;28;20048;-55
2022/09/22 00:18:34;;;;;;;20.67;7.47;;;;;;;10.09;82.87;102043.97;5066878;28;20041;-53
2022/09/22 00:21:11;;;;;;;19.88;6.93;;;;;;;10.14;81.32;102033.84;5067343;28;20490;-53
2022/09/22 00:23:38;;;;;;;16.83;7.10;;;;;;;10.16;81.90;102033.75;5059517;28;20033;-54
2022/09/22 00:26:09;;;;;;;24.33;7.70;;;;;;;10.10;82.68;102040.38;5066995;28;20094;-53
2022/09/22 00:28:37;;;;;;;25.23;7.57;;;;;;;10.05;83.35;102033.72;5068365;28;20063;-54
2022/09/22 00:31:09;;;;;;;19.13;7.10;;;;;;;10.02;83.28;102044.56;5073023;28;20052;-54
2022/09/22 00:33:37;;;;;;;;;;;;;;;9.97;83.61;102045.78;5080136;28;20212;-53
2022/09/22 00:36:04;;;;;;;18.35;6.53;;;;;;;9.97;83.08;102036.97;5090912;28;19921;-53
2022/09/22 00:38:32;;;;;;;22.20;7.50;;;;;;;9.96;82.78;102041.41;5082303;28;20036;-54
2022/09/22 00:41:00;;;;;;;17.40;6.82;;;;;;;9.96;82.86;102036.13;5084489;28;20090;-54
2022/09/22 00:43:29;;;;;;;26.38;7.30;;;;;;;10.06;82.40;102040.72;5072558;28;20040;-53
2022/09/22 00:46:05;;;;;;;17.35;6.70;;;;;;;10.06;82.32;102036.28;5060647;28;20079;-54
2022/09/22 00:48:36;;;;;;;20.25;6.50;;;;;;;10.12;81.89;102040.25;5088221;28;20045;-54
2022/09/22 00:51:07;;;;;;;19.63;7.10;;;;;;;10.03;81.94;102035.66;5069081;28;20136;-54
2022/09/22 00:53:34;;;;;;;18.77;6.63;;;;;;;9.99;82.39;102033.25;4973034;28;20049;-54
2022/09/22 00:56:08;;;;;;;17.40;6.40;;;;;;;9.99;82.44;102029.75;5068562;28;20074;-54
2022/09/22 00:58:39;;;;;;;16.98;6.38;;;;;;;9.98;82.01;102028.88;5087726;28;20040;-55
2022/09/22 01:01:08;;;;;;;19.40;7.00;;;;;;;9.94;82.11;102029.25;5069294;28;20202;-53
2022/09/22 01:03:38;;;;;;;22.70;6.95;;;;;;;9.91;82.79;102025.03;5061324;28;20394;-53
2022/09/22 01:06:08;;;;;;;19.38;6.85;;;;;;;9.92;82.47;102026.72;5091624;28;20116;-53
2022/09/22 01:08:36;;;;;;;17.27;6.88;;;;;;;10.01;82.09;102019.88;5064995;28;20063;-54
2022/09/22 01:11:05;;;;;;;17.98;6.95;;;;;;;9.97;82.34;102015.78;5083397;28;20101;-54
2022/09/22 01:14:00;;;;;;;15.60;6.70;;;;;;;10.01;81.41;102016.38;5065997;28;20075;-54
2022/09/22 01:19:46;;;;;;;16.77;6.28;;;;;;;9.90;81.72;102004.78;5122636;27;20401;-53
2022/09/22 01:25:33;;;;;;;17.42;6.05;;;;;;;9.79;82.47;102004.78;5098608;28;20724;-53
2022/09/22 01:28:32;;;;;;;17.85;6.60;;;;;;;9.80;82.64;101996.72;5087447;28;20102;-54
2022/09/22 01:31:24;;;;;;;15.45;6.43;;;;;;;9.83;82.40;101997.44;5080436;28;20033;-54
2022/09/22 01:34:16;;;;;;;17.65;6.45;;;;;;;9.84;82.19;101993.81;5073120;28;20071;-53
2022/09/22 01:36:51;;;;;;;18.90;6.83;;;;;;;9.84;82.43;101988.50;5081360;28;20033;-52
2022/09/22 01:39:35;;;;;;;16.55;5.97;;;;;;;9.79;82.07;101991.53;5083345;28;20098;-53
2022/09/22 01:44:51;;;;;;;21.52;6.63;;;;;;;9.68;82.56;101996.78;5118476;27;20128;-54
2022/09/22 01:47:27;;;;;;;17.90;6.60;;;;;;;9.68;82.63;101983.53;5117192;27;20085;-54
2022/09/22 01:50:01;;;;;;;20.40;6.65;;;;;;;9.67;82.63;101984.53;5122662;28;20043;-53
2022/09/22 01:52:32;;;;;;;16.50;6.07;;;;;;;9.64;82.82;101985.63;5002952;27;20039;-54
2022/09/22 01:55:08;;;;;;;19.48;7.00;;;;;;;9.67;82.85;101982.72;5110360;28;20048;-54
2022/09/22 01:57:47;;;;;;;17.58;6.43;;;;;;;9.66;83.16;101980.19;5126488;28;20392;-54
2022/09/22 02:00:14;;;;;;;14.93;6.38;;;;;;;9.60;83.51;101985.00;5099321;28;20032;-54
2022/09/22 02:02:55;;;;;;;15.88;6.20;;;;;;;9.50;83.74;101978.72;5122031;27;20048;-55
2022/09/22 02:05:45;;;;;;;17.27;6.65;;;;;;;9.53;83.87;101980.28;5124282;28;20043;-55
2022/09/22 02:08:20;;;;;;;17.50;6.45;;;;;;;9.58;83.62;101976.31;5104655;28;20051;-55
2022/09/22 02:10:48;;;;;;;19.10;6.43;;;;;;;9.57;83.48;101969.34;5121588;27;20048;-55
2022/09/22 02:13:15;;;;;;;15.63;6.75;;;;;;;9.66;82.67;101970.44;5123341;28;20043;-55
2022/09/22 02:16:13;;;;;;;17.88;6.30;;;;;;;9.64;83.00;101968.84;5113120;27;20044;-54
2022/09/22 02:18:36;;;;;;;16.05;6.53;;;;;;;9.63;83.75;101973.31;5123034;27;20478;-55
2022/09/22 02:21:03;;;;;;;20.00;6.43;;;;;;;9.54;83.84;101968.72;5121565;28;20058;-55
2022/09/22 02:23:31;;;;;;;18.40;6.20;;;;;;;9.53;83.68;101965.25;5114753;28;20046;-54
2022/09/22 02:26:00;;;;;;;15.32;6.57;;;;;;;9.56;84.28;101969.44;5120376;28;20044;-54
2022/09/22 02:28:31;;;;;;;15.43;6.28;;;;;;;9.56;84.27;101969.44;5123636;27;20111;-55
2022/09/22 02:31:00;;;;;;;21.63;6.80;;;;;;;9.59;84.01;101967.41;5119845;28;20434;-54
2022/09/22 02:33:44;;;;;;;21.20;6.63;;;;;;;9.64;83.62;101961.78;5112184;28;20032;-55
2022/09/22 02:36:24;;;;;;;20.27;7.03;;;;;;;9.61;83.30;101959.34;5125576;27;20032;-55
2022/09/22 02:39:17;;;;;;;18.73;6.38;;;;;;;9.60;83.30;101961.16;5120448;28;20079;-55
2022/09/22 02:42:08;;;;;;;22.90;7.05;;;;;;;9.49;83.04;101966.41;5112845;27;20090;-55
2022/09/22 02:44:55;;;;;;;16.10;5.78;;;;;;;9.47;83.19;101963.03;5122011;27;20052;-55
2022/09/22 02:50:03;;;;;;;15.93;6.07;;;;;;;9.37;83.98;101956.78;5127373;27;20460;-53
2022/09/22 02:52:29;;;;;;;12.18;5.38;;;;;;;9.40;83.71;101956.53;4992228;28;20047;-54
2022/09/22 02:54:56;;;;;;;15.80;5.50;;;;;;;9.47;82.87;101957.75;5121295;27;20050;-54
2022/09/22 02:57:23;;;;;;;15.38;4.95;;;;;;;9.51;82.47;101958.34;5124958;28;20112;-55
2022/09/22 02:59:49;;;;;;;13.13;5.30;;;;;;;9.46;82.14;101957.84;5113705;27;20065;-55
2022/09/22 03:02:16;;;;;;;13.35;4.70;;;;;;;9.37;82.24;101952.31;5127841;27;20054;-54
2022/09/22 03:04:43;;;;;;;10.45;4.57;;;;;;;9.41;82.07;101944.97;5121199;27;20047;-54
2022/09/22 03:07:09;;;;;;;19.20;4.85;;;;;;;9.47;82.54;101943.66;5121106;28;20492;-54
2022/09/22 03:09:36;;;;;;;18.48;5.75;;;;;;;9.36;82.73;101945.31;5126664;28;20043;-54
2022/09/22 03:12:03;;;;;;;13.80;5.20;;;;;;;9.35;82.74;101942.78;5113992;28;20036;-55
2022/09/22 03:14:30;;;;;;;16.45;5.93;;;;;;;9.30;83.39;101942.31;5123835;27;20032;-55
2022/09/22 03:16:57;;;;;;;16.13;5.15;;;;;;;9.33;83.13;101942.91;5119471;28;20047;-55
2022/09/22 03:19:24;;;;;;;12.60;4.78;;;;;;;9.33;82.73;101940.28;5115799;27;20393;-55
2022/09/22 03:21:51;;;;;;;12.52;4.63;;;;;;;9.38;82.70;101943.38;5126526;28;20400;-55
2022/09/22 03:24:19;;;;;;;14.43;4.85;;;;;;;9.33;83.18;101937.63;5115450;28;20032;-55
2022/09/22 03:26:45;;;;;;;10.75;4.55;;;;;;;9.26;83.17;101939.06;5121831;27;20096;-55
2022/09/22 03:29:12;;;;;;;11.32;5.00;;;;;;;9.29;82.93;101936.16;5116371;28;20040;-55
2022/09/22 03:31:39;;;;;;;16.83;5.18;;;;;;;9.29;83.27;101935.31;5126270;28;20039;-55
2022/09/22 03:34:05;;;;;;;15.93;5.10;;;;;;;9.29;83.25;101930.03;5111988;28;20084;-55
2022/09/22 03:36:32;;;;;;;12.40;5.15;;;;;;;9.28;83.03;101933.63;5122109;28;20064;-55
2022/09/22 03:38:59;;;;;;;17.90;6.35;;;;;;;9.27;83.07;101929.28;5120460;28;20047;-56
2022/09/22 03:41:25;;;;;;;17.15;5.88;;;;;;;9.23;83.49;101937.47;5115678;28;20127;-55
2022/09/22 03:43:52;;;;;;;17.80;6.00;;;;;;;9.28;83.48;101937.13;5126127;28;20097;-53
2022/09/22 03:46:19;;;;;;;18.15;5.95;;;;;;;9.25;83.73;101931.22;5115084;28;20047;-55
2022/09/22 03:48:46;;;;;;;18.23;6.20;;;;;;;9.21;83.53;101927.97;5085420;28;20048;-56
2022/09/22 03:51:13;;;;;;;17.40;6.32;;;;;;;9.18;83.97;101929.00;5018441;28;20748;-55
2022/09/22 03:53:40;;;;;;;16.83;6.03;;;;;;;9.23;83.83;101934.81;5095230;28;20067;-54
2022/09/22 03:56:10;;;;;;;20.13;6.70;;;;;;;9.18;84.17;101933.47;5104980;28;20043;-55
2022/09/22 03:58:37;;;;;;;15.93;6.55;;;;;;;9.19;84.02;101922.78;5121859;27;20039;-53
2022/09/22 04:01:04;;;;;;;20.45;6.30;;;;;;;9.16;84.34;101927.47;5108465;28;20040;-55
2022/09/22 04:03:32;;;;;;;22.33;7.05;;;;;;;9.17;84.17;101919.41;5100221;28;20485;-55
2022/09/22 04:05:59;;;;;;;17.30;6.78;;;;;;;9.17;84.13;101924.69;5111858;28;20039;-56
2022/09/22 04:08:26;;;;;;;14.10;6.35;;;;;;;9.22;84.22;101922.56;5101669;28;20081;-54
2022/09/22 04:10:53;;;;;;;15.32;6.38;;;;;;;9.12;84.35;101920.72;5105602;28;20044;-55
2022/09/22 04:13:20;;;;;;;19.73;6.38;;;;;;;9.11;84.75;101916.38;5109662;28;20062;-55
2022/09/22 04:15:46;;;;;;;20.20;6.05;;;;;;;9.18;84.54;101915.78;5098326;28;20058;-55
2022/09/22 04:18:14;;;;;;;14.52;5.72;;;;;;;9.12;84.12;101915.41;5111041;28;20044;-55
2022/09/22 04:20:43;;;;;;;15.43;5.60;;;;;;;9.17;83.47;101908.81;5104235;28;20051;-54
2022/09/22 04:23:10;;;;;;;14.95;6.18;;;;;;;9.19;83.98;101912.19;5103271;28;20048;-55
2022/09/22 04:25:38;;;;;;;17.40;6.03;;;;;;;9.22;83.97;101919.03;5103572;28;20065;-55
2022/09/22 04:28:05;;;;;;;17.60;5.90;;;;;;;9.16;83.91;101916.88;5111558;28;20400;-55
2022/09/22 04:30:33;;;;;;;14.43;5.88;;;;;;;9.10;84.25;101920.81;5101606;28;20506;-55
2022/09/22 04:33:00;;;;;;;18.83;6.55;;;;;;;9.08;84.72;101916.59;5104440;28;20401;-55
2022/09/22 04:35:28;;;;;;;15.25;5.78;;;;;;;9.16;83.74;101915.06;5109817;28;20489;-56
2022/09/22 04:37:56;;;;;;;13.77;5.85;;;;;;;9.03;84.31;101915.13;5098425;28;20044;-55
2022/09/22 04:40:23;;;;;;;15.52;6.45;;;;;;;9.11;84.25;101911.06;5109288;28;20047;-55
2022/09/22 04:42:50;;;;;;;17.60;5.97;;;;;;;9.07;84.10;101910.47;5104716;28;20039;-53
2022/09/22 04:45:17;;;;;;;16.85;6.15;;;;;;;9.04;84.46;101908.06;5100163;28;20048;-54
2022/09/22 04:47:46;;;;;;;13.73;5.88;;;;;;;9.06;84.28;101910.56;5110857;28;20044;-53
2022/09/22 04:50:14;;;;;;;17.23;6.35;;;;;;;9.10;84.53;101912.88;5098490;28;20552;-54
2022/09/22 04:52:50;;;;;;;15.93;6.57;;;;;;;9.02;84.71;101909.94;4972824;28;20067;-54
2022/09/22 04:55:17;;;;;;;16.85;6.00;;;;;;;9.04;84.52;101910.72;5112171;27;20146;-54
2022/09/22 04:57:49;;;;;;;19.48;5.82;;;;;;;9.01;84.78;101916.22;5111301;28;20044;-54
2022/09/22 05:00:17;;;;;;;16.88;6.40;;;;;;;9.05;84.34;101912.38;5099228;28;20039;-54
2022/09/22 05:02:44;;;;;;;16.73;6.07;;;;;;;9.06;84.15;101916.72;5106050;28;20039;-54
2022/09/22 05:05:11;;;;;;;12.40;6.15;;;;;;;9.07;84.26;101923.69;5106663;28;20105;-52
2022/09/22 05:07:42;;;;;;;13.68;6.57;;;;;;;9.10;84.21;101914.69;5098195;28;20047;-54
2022/09/22 05:10:10;;;;;;;15.57;6.60;;;;;;;9.07;84.17;101915.75;5081963;28;20038;-54
2022/09/22 05:12:43;;;;;;;15.93;6.75;;;;;;;9.04;84.28;101926.59;5105967;28;20093;-54
2022/09/22 05:15:12;;;;;;;14.48;5.88;;;;;;;9.07;84.57;101917.56;5106634;28;20044;-52
2022/09/22 05:17:45;;;;;;;19.65;6.22;;;;;;;8.83;84.89;101924.56;5097841;28;20044;-54
2022/09/22 05:20:13;;;;;;;14.55;6.22;;;;;;;8.89;84.80;101917.13;5083241;28;20028;-54
2022/09/22 05:22:40;;;;;;;15.88;5.70;;;;;;;8.94;85.04;101928.22;5106485;28;20106;-54
2022/09/22 05:25:10;;;;;;;16.70;6.13;;;;;;;8.93;84.73;101924.75;5102467;28;20482;-54
2022/09/22 05:27:48;;;;;;;13.70;5.88;;;;;;;8.96;84.44;101928.94;5098678;28;20040;-54
2022/09/22 05:30:17;;;;;;;14.70;5.65;;;;;;;8.94;84.60;101926.41;5082907;28;20031;-55
2022/09/22 05:32:45;;;;;;;20.58;5.78;;;;;;;8.96;84.86;101934.25;5105422;28;20101;-54
2022/09/22 05:35:13;;;;;;;11.45;5.35;;;;;;;8.94;84.45;101923.78;5106887;28;20389;-53
2022/09/22 05:37:42;;;;;;;15.52;6.13;;;;;;;8.93;84.62;101935.34;5096879;27;20085;-54
2022/09/22 05:40:10;;;;;;;17.58;5.82;;;;;;;8.98;84.66;101927.03;5081689;28;20126;-53
2022/09/22 05:42:42;;;;;;;14.77;5.75;;;;;;;9.02;84.53;101920.53;5105400;28;20104;-54
2022/09/22 05:45:09;;;;;;;13.68;5.65;;;;;;;9.06;83.92;101932.59;5105647;28;20108;-54
2022/09/22 05:47:36;;;;;;;19.33;6.68;;;;;;;9.05;83.79;101930.06;5095932;28;20066;-54
2022/09/22 05:50:04;;;;;;;16.10;6.00;;;;;;;9.05;84.03;101930.06;5109913;28;20040;-54
2022/09/22 05:52:30;;;;;;;18.02;5.95;;;;;;;9.05;84.44;101930.06;4973296;28;20035;-54
2022/09/22 05:54:57;;;;;;;20.83;6.35;;;;;;;9.06;84.48;101932.59;5103571;28;20051;-54
2022/09/22 05:57:26;;;;;;;17.42;6.40;;;;;;;9.11;84.38;101933.09;5107527;28;20524;-52
2022/09/22 05:59:53;;;;;;;15.77;6.32;;;;;;;9.11;84.31;101925.16;5096475;28;20072;-54
2022/09/22 06:02:22;;;;;;;16.75;7.10;;;;;;;9.00;84.50;101935.69;5107836;28;20047;-53
2022/09/22 06:04:51;;;;;;;16.45;6.50;;;;;;;8.98;84.30;101943.75;5102340;28;20047;-55
2022/09/22 06:07:19;;;;;;;15.15;5.90;;;;;;;9.05;83.98;101941.50;5099242;28;20101;-54
2022/09/22 06:09:46;;;;;;;19.35;6.25;;;;;;;9.10;83.35;101944.66;5110008;28;20096;-54
2022/09/22 06:12:14;;;;;;;16.00;6.10;;;;;;;9.08;83.31;101946.56;5097682;28;20051;-57
2022/09/22 06:14:40;;;;;;;15.63;5.70;;;;;;;8.93;83.19;101937.97;5104893;28;20044;-54
2022/09/22 06:17:10;;;;;;;18.42;5.95;;;;;;;9.15;83.37;101936.34;5104854;28;20070;-53
2022/09/22 06:19:38;;;;;;;13.32;6.05;;;;;;;9.22;82.16;101938.44;5097062;28;20036;-55
2022/09/22 06:22:06;;;;;;;19.20;6.28;;;;;;;9.23;82.20;101929.53;5096509;28;20048;-54
2022/09/22 06:24:33;;;;;;;12.48;5.53;;;;;;;9.21;81.89;101934.09;5105298;28;20048;-55
2022/09/22 06:27:00;;;;;;;18.65;6.22;;;;;;;9.20;82.29;101928.91;5103899;28;20441;-54
2022/09/22 06:29:28;;;;;;;18.52;5.65;;;;;;;9.29;82.19;101930.03;5097532;28;20054;-52
2022/09/22 06:31:54;;;;;;;13.90;6.03;;;;;;;9.39;80.85;101936.31;5109266;28;20442;-55
2022/09/22 06:34:22;;;;;;;14.95;5.63;;;;;;;9.30;81.14;101937.84;5098285;28;20442;-55
2022/09/22 06:36:49;;;;;;;21.80;6.43;;;;;;;9.38;81.11;101939.91;5103577;28;20052;-55
2022/09/22 06:39:15;;;;;;;27.00;6.82;;;;;;;9.46;80.97;101929.59;5100803;28;20044;-55
2022/09/22 06:41:43;;;;;;;15.80;6.03;;;;;;;9.45;81.12;101940.28;5109526;28;20096;-54
2022/09/22 06:44:11;;;;;;;22.17;6.68;;;;;;;9.45;80.83;101935.84;5095911;28;20052;-55
2022/09/22 06:46:38;;;;;;;24.33;6.93;;;;;;;9.49;80.63;101934.63;5104611;28;20047;-55
2022/09/22 06:49:04;;;;;;;23.42;7.90;;;;;;;9.55;80.79;101936.81;5104135;28;20134;-55
2022/09/22 06:51:34;;;;;;;22.00;7.30;;;;;;;9.57;79.73;101942.00;4966206;28;20051;-56
2022/09/22 06:54:03;;;;;;;19.83;7.35;;;;;;;9.66;80.00;101932.47;5105429;28;20072;-55
2022/09/22 06:56:34;;;;;;;25.08;7.70;;;;;;;9.71;79.41;101933.81;5104144;28;20043;-54
2022/09/22 06:59:11;;;;;;;22.98;6.93;;;;;;;9.66;79.26;101941.28;5101172;28;20044;-55
2022/09/22 07:01:41;;;;;;;21.40;7.88;;;;;;;9.57;79.70;101934.91;5108903;28;20040;-54
2022/09/22 07:04:09;;;;;;;16.63;6.20;;;;;;;9.64;78.29;101937.06;5079422;28;20346;-54
2022/09/22 07:06:36;;;;;;;16.73;6.80;;;;;;;9.71;78.40;101938.28;5103711;28;20126;-55
2022/09/22 07:09:04;;;;;;;22.85;6.88;;;;;;;9.84;78.65;101930.22;5087278;28;20039;-55
2022/09/22 07:11:30;;;;;;;17.23;6.80;;;;;;;9.71;79.21;101930.31;5091522;28;20067;-54
2022/09/22 07:13:58;;;;;;;19.08;6.70;;;;;;;9.87;nan;101935.28;5108720;28;20510;-55
2022/09/22 07:16:25;;;;;;;18.80;7.32;;;;;;;9.76;78.94;101926.34;5098618;28;20085;-55
2022/09/22 07:18:54;;;;;;;16.05;6.03;;;;;;;9.95;78.57;101933.72;5102709;28;20040;-55
2022/09/22 07:21:25;;;;;;;17.90;6.43;;;;;;;10.12;77.77;101937.69;5106342;28;20067;-54
2022/09/22 07:23:54;;;;;;;19.05;6.03;;;;;;;10.06;77.84;101930.22;5096132;28;20171;-55
2022/09/22 07:26:25;;;;;;;15.50;6.50;;;;;;;10.16;78.11;101930.31;5104027;28;20044;-55
2022/09/22 07:28:52;;;;;;;16.93;6.00;;;;;;;10.24;77.53;101935.88;5099831;28;20062;-55
2022/09/22 07:31:22;;;;;;;15.18;6.10;;;;;;;10.30;77.22;101937.19;5081746;28;20643;-53
2022/09/22 07:33:53;;;;;;;13.02;5.97;;;;;;;10.31;76.50;101931.75;5098929;28;20093;-56
2022/09/22 07:36:22;;;;;;;22.55;6.55;;;;;;;10.55;76.63;101934.25;5108919;28;20067;-56
2022/09/22 07:38:50;;;;;;;18.15;6.38;;;;;;;10.55;76.95;101922.78;5091266;28;20401;-56
2022/09/22 07:41:20;;;;;;;14.05;6.35;;;;;;;10.53;77.36;101933.56;5085123;28;20448;-56
2022/09/22 07:43:50;;;;;;;23.10;6.70;;;;;;;10.54;77.17;101927.25;5082261;28;20135;-56
2022/09/22 07:46:17;;;;;;;19.67;6.60;;;;;;;10.67;77.06;101932.41;5086243;28;20036;-56
2022/09/22 07:48:46;;;;;;;16.17;6.80;;;;;;;10.77;77.19;101932.50;5093859;28;20186;-56
2022/09/22 07:51:18;;;;;;;21.40;6.93;;;;;;;10.91;76.94;101931.34;5043012;28;20044;-56
2022/09/22 07:53:53;;;;;;;15.75;6.78;;;;;;;11.01;75.99;101931.44;5086003;28;20064;-56
2022/09/22 07:56:22;;;;;;;22.02;7.80;;;;;;;11.00;76.65;101935.91;5086932;28;20401;-56
2022/09/22 07:58:52;;;;;;;18.95;6.90;;;;;;;11.12;75.65;101931.41;5093718;28;20101;-56
2022/09/22 08:01:21;;;;;;;17.20;6.90;;;;;;;11.13;76.14;101935.72;5084722;28;20500;-56
2022/09/22 08:03:49;;;;;;;26.98;7.32;;;;;;;11.26;75.16;101931.06;5084325;28;20101;-56
2022/09/22 08:06:18;;;;;;;18.02;6.90;;;;;;;11.43;75.24;101928.81;5105068;28;20099;-56
2022/09/22 08:08:48;;;;;;;21.65;6.35;;;;;;;11.67;73.98;101934.66;5098494;28;20490;-56
2022/09/22 08:11:16;;;;;;;17.67;6.82;;;;;;;11.77;72.82;101931.19;5095703;28;20630;-56
2022/09/22 08:13:50;;;;;;;13.70;6.32;;;;;;;11.72;72.85;101932.44;5095431;28;20056;-56
2022/09/22 08:16:17;;;;;;;14.20;7.20;;;;;;;11.81;72.81;101933.47;5095306;28;20063;-56
2022/09/22 08:18:49;;;;;;;16.52;6.63;;;;;;;12.03;73.03;101932.47;5094983;28;20089;-56
2022/09/22 08:21:18;;;;;;;;;;;;;;;12.18;71.18;101926.78;5095924;28;20032;-56
2022/09/22 08:23:45;;;;;;;21.50;5.88;;;;;;;12.31;70.98;101926.53;5107564;28;19920;-56
2022/09/22 08:26:11;;;;;;;13.73;6.30;;;;;;;12.51;69.69;101924.75;5095095;28;20040;-56
2022/09/22 08:28:39;;;;;;;21.50;6.35;;;;;;;12.58;69.21;101925.88;5088642;28;20040;-56
2022/09/22 08:31:10;;;;;;;13.90;6.10;;;;;;;12.76;69.34;101921.56;5091443;28;20044;-56
2022/09/22 08:33:39;;;;;;;19.73;6.85;;;;;;;12.77;69.26;101917.91;5075419;28;20394;-57
2022/09/22 08:36:06;;;;;;;15.80;6.22;;;;;;;12.95;69.66;101920.72;5073627;28;20048;-56
2022/09/22 08:38:33;;;;;;;16.45;6.43;;;;;;;13.07;69.37;101922.25;5081058;28;20040;-56
2022/09/22 08:41:26;;;;;;;16.15;6.57;;;;;;;13.28;67.57;101920.38;5086764;28;20055;-56
2022/09/22 08:43:57;;;;;;;15.65;6.25;;;;;;;13.40;68.60;101927.28;5076642;28;20051;-55
2022/09/22 08:46:33;;;;;;;15.73;6.35;;;;;;;13.44;68.42;101924.19;5089477;28;20409;-54
2022/09/22 08:52:07;;;;;;;17.77;5.97;;;;;;;13.62;66.45;101931.44;4994821;28;20036;-55
2022/09/22 08:54:34;;;;;;;21.45;6.18;;;;;;;13.89;65.22;101930.63;5094956;28;20044;-55
2022/09/22 08:57:24;;;;;;;14.88;6.03;;;;;;;13.94;63.66;101936.38;5094538;28;20040;-54
2022/09/22 09:00:05;;;;;;;18.38;5.72;;;;;;;14.15;63.34;101929.94;5094659;28;20512;-55
2022/09/22 09:05:50;;;;;;;15.98;6.03;;;;;;;14.92;61.09;101931.28;5083440;27;20397;-56
2022/09/22 09:08:59;;;;;;;14.20;5.90;;;;;;;15.41;60.69;101930.81;5071221;28;20037;-56
2022/09/22 09:11:56;;;;;;;15.07;5.80;;;;;;;16.25;58.71;101929.25;5070717;28;20553;-56
2022/09/22 09:14:52;;;;;;;16.85;5.57;;;;;;;17.32;53.45;101923.16;5086367;28;20422;-54
2022/09/22 09:17:27;;;;;;;13.80;5.82;;;;;;;18.37;49.34;101926.53;5087771;28;20113;-56
2022/09/22 09:20:04;;;;;;;14.60;5.53;;;;;;;19.44;47.10;101932.94;5086534;28;20569;-56
2022/09/22 09:22:40;;;;;;;12.90;5.43;;;;;;;20.53;44.48;101935.81;5075255;28;20036;-56
2022/09/22 09:25:19;;;;;;;13.93;5.35;;;;;;;21.13;42.77;101925.59;5067346;28;20405;-54
2022/09/22 09:27:56;;;;;;;15.27;5.80;;;;;;;22.29;40.67;101935.88;5069841;28;20041;-56
2022/09/22 09:30:23;;;;;;;11.02;5.25;;;;;;;22.62;38.87;101938.66;5069815;28;20045;-54
2022/09/22 09:32:58;;;;;;;14.07;4.90;;;;;;;23.29;37.79;101930.59;5074439;28;20105;-54
2022/09/22 09:35:36;;;;;;;10.63;4.80;;;;;;;23.57;36.48;101929.50;5079017;28;20432;-54
2022/09/22 09:38:09;;;;;;;13.23;5.13;;;;;;;23.37;36.67;101927.66;5068459;28;20131;-55
2022/09/22 09:40:36;;;;;;;13.30;4.57;;;;;;;24.23;35.96;101930.31;5067946;28;20506;-54
2022/09/22 09:43:04;;;;;;;11.85;5.00;;;;;;;23.84;35.19;101924.03;5072657;28;20102;-55
2022/09/22 09:45:43;;;;;;;10.90;4.80;;;;;;;24.71;35.38;101917.13;5071518;28;20067;-54
2022/09/22 09:48:39;;;;;;;12.43;4.55;;;;;;;25.11;33.35;101924.13;5066741;28;20048;-55
2022/09/22 09:51:11;;;;;;;14.50;4.80;;;;;;;25.29;32.35;101917.94;5055812;28;20048;-54
2022/09/22 09:53:46;;;;;;;10.52;4.47;;;;;;;25.28;33.16;101911.66;5081916;28;20041;-55
2022/09/22 09:56:29;;;;;;;13.85;5.10;;;;;;;25.54;31.59;101908.88;5073694;28;20470;-55
2022/09/22 10:01:49;;;;;;;13.98;4.72;;;;;;;26.48;29.95;101901.19;5066824;28;20048;-56
2022/09/22 10:04:26;;;;;;;17.58;5.63;;;;;;;26.43;30.11;101899.19;5064991;28;20529;-55
2022/09/22 10:06:54;;;;;;;14.07;4.85;;;;;;;26.75;30.02;101893.47;5055645;28;20048;-55
2022/09/22 10:09:26;;;;;;;18.55;4.68;;;;;;;27.30;28.94;101891.50;5066462;28;20049;-55
2022/09/22 10:11:58;;;;;;;11.55;4.22;;;;;;;27.76;28.14;101896.06;5067148;28;20123;-55
2022/09/22 10:14:28;;;;;;;12.98;4.07;;;;;;;27.82;27.40;101887.97;5064506;28;20024;-54
2022/09/22 10:16:54;;;;;;;10.23;4.38;;;;;;;28.19;26.35;101890.34;5050330;28;20466;-55
2022/09/22 10:19:27;;;;;;;10.80;3.65;;;;;;;28.63;26.65;101894.13;5061330;28;20090;-55
2022/09/22 10:22:16;;;;;;;10.68;3.83;;;;;;;28.99;25.96;101886.53;5056178;28;20156;-55
2022/09/22 10:25:00;;;;;;;10.10;3.35;;;;;;;27.64;24.76;101881.63;5048567;28;20044;-55
2022/09/22 10:27:30;;;;;;;10.90;3.83;;;;;;;27.38;26.17;101881.09;5060396;28;20125;-55
2022/09/22 10:30:20;;;;;;;9.88;3.55;;;;;;;26.42;27.07;101883.91;5052669;28;20090;-55
2022/09/22 10:33:09;;;;;;;9.70;3.20;;;;;;;26.32;28.00;101875.50;5056957;28;20038;-56
2022/09/22 10:35:40;;;;;;;12.57;4.13;;;;;;;25.52;28.25;101875.69;5051913;28;20120;-55
2022/09/22 10:38:14;;;;;;;10.40;3.65;;;;;;;25.03;28.92;101868.22;5062209;28;20052;-55
2022/09/22 10:40:47;;;;;;;11.85;3.63;;;;;;;24.29;29.98;101872.53;5031145;28;20041;-55
2022/09/22 10:46:31;;;;;;;11.02;3.38;;;;;;;23.92;31.52;101859.63;5090403;27;20394;-55
2022/09/22 10:49:09;;;;;;;8.10;3.50;;;;;;;23.58;33.38;101861.59;5081097;28;20711;-55
2022/09/22 10:54:42;;;;;;;12.70;3.65;;;;;;;23.96;31.96;101865.44;5109519;27;20875;-55
2022/09/22 10:57:26;;;;;;;9.48;3.40;;;;;;;22.17;32.97;101857.22;5094051;28;20044;-54
2022/09/22 11:00:14;;;;;;;9.73;3.03;;;;;;;22.96;32.77;101852.94;5095661;28;20046;-55
2022/09/22 11:03:15;;;;;;;14.95;3.78;;;;;;;23.44;32.27;101849.13;5097181;28;20043;-55
2022/09/22 11:12:49;;;;;;;21.45;3.88;;;;;;;23.38;32.06;101850.81;5090486;28;20052;-57
2022/09/22 11:15:44;;;;;;;17.83;3.80;;;;;;;23.46;32.98;101844.34;5105821;28;20461;-57
2022/09/22 11:21:26;;;;;;;8.98;3.75;;;;;;;22.00;33.02;101837.84;5125909;27;20201;-56
2022/09/22 11:26:57;;;;;;;13.10;3.90;;;;;;;22.12;32.12;101827.28;5096312;27;20725;-56
2022/09/22 11:29:51;;;;;;;8.20;3.38;;;;;;;22.49;33.75;101829.66;5090042;28;20490;-55
2022/09/22 11:32:47;;;;;;;12.95;3.55;;;;;;;22.50;32.67;101820.50;5098984;28;20055;-55
2022/09/22 11:38:08;;;;;;;9.00;3.20;;;;;;;23.23;31.65;101822.31;5076767;27;1153269;-57
2022/09/22 11:41:06;;;;;;;10.20;3.72;;;;;;;23.14;31.26;101819.00;5091087;28;20040;-57
2022/09/22 11:43:50;;;;;;;10.35;3.55;;;;;;;22.95;30.93;101805.28;5094243;28;20486;-57
2022/09/22 11:46:56;;;;;;;8.55;3.10;;;;;;;22.64;30.58;101795.13;5100532;28;20032;-58
2022/09/22 11:50:03;;;;;;;7.10;3.10;;;;;;;22.56;32.27;101798.06;5088290;28;20071;-58
2022/09/22 11:52:56;;;;;;;9.23;3.22;;;;;;;22.77;31.37;101803.22;5051112;28;20115;-58
2022/09/22 11:55:45;;;;;;;8.30;2.88;;;;;;;23.05;31.21;101796.78;5096120;28;20048;-58
2022/09/22 11:58:18;;;;;;;9.32;3.67;;;;;;;23.13;29.08;101796.53;5110090;28;20036;-58
2022/09/22 12:00:52;;;;;;;8.80;3.00;;;;;;;22.97;29.05;101795.06;5101868;28;20055;-57
2022/09/22 12:03:25;;;;;;;9.75;3.13;;;;;;;23.03;29.49;101789.88;5090756;28;20047;-58
2022/09/22 12:06:00;;;;;;;12.40;3.20;;;;;;;23.56;29.83;101787.84;5090161;28;20052;-58
2022/09/22 12:08:35;;;;;;;10.63;3.30;;;;;;;23.50;28.68;101782.47;5089880;28;20055;-58
2022/09/22 12:11:05;;;;;;;19.25;3.40;;;;;;;23.75;29.95;101771.72;5087394;28;20096;-58
2022/09/22 12:13:34;;;;;;;17.10;2.65;;;;;;;24.07;29.58;101777.19;5103662;28;20036;-58
2022/09/22 12:16:17;;;;;;;8.85;2.92;;;;;;;23.10;28.42;101766.38;5093029;28;20477;-57
2022/09/22 12:19:24;;;;;;;17.30;3.47;;;;;;;23.81;29.64;101770.88;5109485;28;20047;-58
2022/09/22 12:22:18;;;;;;;7.30;2.80;;;;;;;23.20;30.71;101761.34;5094486;28;20044;-58
2022/09/22 12:24:46;;;;;;;7.80;2.80;;;;;;;23.00;31.00;101758.66;5093538;28;20044;-58
2022/09/22 12:27:23;;;;;;;12.70;3.65;;;;;;;22.84;31.56;101759.94;5092162;28;20487;-58
2022/09/22 12:29:57;;;;;;;7.40;2.70;;;;;;;23.19;30.12;101756.97;5087867;28;20161;-59